createdAt,value
2017-07-27T00:00:41.248Z,0
2017-07-27T00:01:51.454Z,0
2017-07-27T00:03:02.166Z,0
2017-07-27T00:04:12.679Z,0
2017-07-27T00:05:23.148Z,0
2017-07-27T00:06:33.862Z,0
2017-07-27T00:07:44.363Z,0
2017-07-27T00:08:54.834Z,0
2017-07-27T00:10:05.519Z,0
2017-07-27T00:11:15.983Z,0
2017-07-27T00:12:26.766Z,0
2017-07-27T00:13:37.237Z,0
2017-07-27T00:14:47.699Z,0
2017-07-27T00:15:58.296Z,0
2017-07-27T00:17:08.952Z,0
2017-07-27T00:18:19.792Z,0
2017-07-27T00:19:30.254Z,0
2017-07-27T00:20:40.754Z,0
2017-07-27T00:21:51.255Z,0
2017-07-27T00:23:01.894Z,0
2017-07-27T00:24:12.610Z,0
2017-07-27T00:25:23.128Z,0
2017-07-27T00:26:33.660Z,0
2017-07-27T00:27:44.169Z,0
2017-07-27T00:28:54.819Z,0
2017-07-27T00:30:05.096Z,0
2017-07-27T00:31:15.841Z,0
2017-07-27T00:32:26.418Z,0
2017-07-27T00:33:36.893Z,0
2017-07-27T00:34:47.313Z,0
2017-07-27T00:35:58.117Z,0
2017-07-27T00:37:08.646Z,0
2017-07-27T00:38:19.351Z,0
2017-07-27T00:39:29.842Z,0
2017-07-27T00:40:40.550Z,0
2017-07-27T00:41:51.266Z,0
2017-07-27T00:43:01.749Z,0
2017-07-27T00:44:11.910Z,0
2017-07-27T00:45:22.362Z,0
2017-07-27T00:46:33.079Z,0
2017-07-27T00:47:43.816Z,0
2017-07-27T00:48:54.297Z,0
2017-07-27T00:50:04.760Z,0
2017-07-27T00:51:15.455Z,0
2017-07-27T00:52:25.907Z,0
2017-07-27T00:53:36.351Z,0
2017-07-27T00:54:46.846Z,0
2017-07-27T00:55:57.330Z,0
2017-07-27T00:57:07.813Z,0
2017-07-27T00:58:18.251Z,0
2017-07-27T00:59:28.957Z,0
2017-07-27T01:00:39.131Z,0
2017-07-27T01:01:49.599Z,0
2017-07-27T01:03:00.097Z,0
2017-07-27T01:04:10.655Z,0
2017-07-27T01:05:21.420Z,0
2017-07-27T01:06:31.440Z,0
2017-07-27T01:07:41.912Z,0
2017-07-27T01:08:51.970Z,0
2017-07-27T01:10:02.450Z,0
2017-07-27T01:11:13.477Z,0
2017-07-27T01:12:23.960Z,0
2017-07-27T01:13:34.416Z,0
2017-07-27T01:14:44.896Z,0
2017-07-27T01:15:55.337Z,0
2017-07-27T01:17:06.044Z,0
2017-07-27T01:18:16.533Z,0
2017-07-27T01:19:27.034Z,0
2017-07-27T01:20:37.249Z,0
2017-07-27T01:21:47.836Z,0
2017-07-27T01:22:58.592Z,0
2017-07-27T01:24:08.833Z,0
2017-07-27T01:25:19.309Z,0
2017-07-27T01:26:29.786Z,0
2017-07-27T01:27:40.340Z,0
2017-07-27T01:28:51.168Z,0
2017-07-27T01:30:01.647Z,0
2017-07-27T01:31:12.265Z,0
2017-07-27T01:32:22.769Z,0
2017-07-27T01:33:33.218Z,0
2017-07-27T01:34:43.914Z,0
2017-07-27T01:35:54.494Z,0
2017-07-27T01:37:04.964Z,0
2017-07-27T01:38:15.499Z,0
2017-07-27T01:39:25.650Z,0
2017-07-27T01:40:36.353Z,0
2017-07-27T01:41:46.823Z,0
2017-07-27T01:42:57.281Z,0
2017-07-27T01:44:07.928Z,0
2017-07-27T01:45:18.603Z,0
2017-07-27T01:46:43.792Z,0
2017-07-27T01:47:54.350Z,0
2017-07-27T01:49:05.060Z,0
2017-07-27T01:50:15.644Z,0
2017-07-27T01:51:26.135Z,0
2017-07-27T01:52:36.925Z,0
2017-07-27T01:53:47.414Z,0
2017-07-27T01:54:57.998Z,0
2017-07-27T01:56:08.494Z,0
2017-07-27T01:57:18.960Z,0
2017-07-27T01:58:30.038Z,0
2017-07-27T01:59:40.531Z,0
2017-07-27T02:00:51.059Z,0
2017-07-27T02:02:01.537Z,0
2017-07-27T02:03:11.988Z,0
2017-07-27T02:04:22.731Z,0
2017-07-27T02:05:33.197Z,0
2017-07-27T02:06:43.672Z,0
2017-07-27T02:07:54.147Z,0
2017-07-27T02:09:05.636Z,0
2017-07-27T02:10:16.341Z,0
2017-07-27T02:11:26.488Z,0
2017-07-27T02:12:36.955Z,0
2017-07-27T02:13:47.457Z,0
2017-07-27T02:14:57.665Z,0
2017-07-27T02:16:08.394Z,0
2017-07-27T02:17:19.003Z,0
2017-07-27T02:18:29.454Z,0
2017-07-27T02:19:39.927Z,0
2017-07-27T02:20:50.396Z,0
2017-07-27T02:22:01.099Z,0
2017-07-27T02:23:11.576Z,0
2017-07-27T02:24:22.022Z,0
2017-07-27T02:25:32.579Z,0
2017-07-27T02:26:43.032Z,0
2017-07-27T02:27:53.478Z,0
2017-07-27T02:29:03.626Z,0
2017-07-27T02:30:14.122Z,0
2017-07-27T02:31:24.583Z,0
2017-07-27T02:32:35.045Z,0
2017-07-27T02:33:45.796Z,0
2017-07-27T02:34:56.259Z,0
2017-07-27T02:36:06.723Z,0
2017-07-27T02:37:17.273Z,0
2017-07-27T02:38:27.773Z,0
2017-07-27T02:39:38.578Z,0
2017-07-27T02:40:49.043Z,0
2017-07-27T02:41:59.521Z,0
2017-07-27T02:43:10.033Z,0
2017-07-27T02:44:20.527Z,0
2017-07-27T02:45:30.948Z,0
2017-07-27T02:46:41.419Z,0
2017-07-27T02:47:51.907Z,0
2017-07-27T02:49:02.370Z,0
2017-07-27T02:50:12.842Z,0
2017-07-27T02:51:23.556Z,0
2017-07-27T02:52:34.022Z,0
2017-07-27T02:53:44.563Z,0
2017-07-27T02:54:55.072Z,0
2017-07-27T02:56:05.137Z,0
2017-07-27T02:57:15.877Z,0
2017-07-27T02:58:26.554Z,0
2017-07-27T02:59:37.009Z,0
2017-07-27T03:00:47.484Z,0
2017-07-27T03:01:57.491Z,0
2017-07-27T03:03:08.189Z,0
2017-07-27T03:04:18.672Z,0
2017-07-27T03:05:29.144Z,0
2017-07-27T03:06:39.607Z,0
2017-07-27T03:07:50.259Z,0
2017-07-27T03:09:01.001Z,0
2017-07-27T03:10:11.665Z,0
2017-07-27T03:11:22.124Z,0
2017-07-27T03:12:32.588Z,0
2017-07-27T03:13:43.072Z,0
2017-07-27T03:14:53.783Z,0
2017-07-27T03:16:04.249Z,0
2017-07-27T03:17:14.695Z,0
2017-07-27T03:18:25.350Z,0
2017-07-27T03:19:35.876Z,0
2017-07-27T03:20:46.590Z,5
2017-07-27T03:21:57.778Z,5
2017-07-27T03:23:07.952Z,5
2017-07-27T03:24:18.453Z,5
2017-07-27T03:25:28.945Z,5
2017-07-27T03:26:39.682Z,5
2017-07-27T03:27:49.883Z,5
2017-07-27T03:29:00.324Z,10
2017-07-27T03:30:10.813Z,10
2017-07-27T03:31:21.281Z,10
2017-07-27T03:32:32.023Z,10
2017-07-27T03:33:42.493Z,10
2017-07-27T03:34:52.999Z,15
2017-07-27T03:36:03.569Z,15
2017-07-27T03:37:14.296Z,15
2017-07-27T03:38:25.071Z,15
2017-07-27T03:39:35.550Z,20
2017-07-27T03:40:46.039Z,20
2017-07-27T03:41:56.499Z,20
2017-07-27T03:43:06.868Z,20
2017-07-27T03:44:17.583Z,25
2017-07-27T03:45:27.760Z,25
2017-07-27T03:46:38.330Z,25
2017-07-27T03:47:48.760Z,30
2017-07-27T03:48:59.226Z,30
2017-07-27T03:50:10.023Z,30
2017-07-27T03:51:20.499Z,35
2017-07-27T03:52:30.955Z,35
2017-07-27T03:53:41.645Z,35
2017-07-27T03:54:52.104Z,35
2017-07-27T03:56:02.388Z,40
2017-07-27T03:57:13.081Z,40
2017-07-27T03:58:23.576Z,40
2017-07-27T03:59:34.061Z,45
2017-07-27T04:00:44.507Z,45
2017-07-27T04:01:55.203Z,45
2017-07-27T04:03:05.675Z,45
2017-07-27T04:04:16.116Z,50
2017-07-27T04:05:26.312Z,50
2017-07-27T04:06:36.760Z,50
2017-07-27T04:07:47.489Z,50
2017-07-27T04:08:57.945Z,55
2017-07-27T04:10:08.553Z,55
2017-07-27T04:11:18.993Z,55
2017-07-27T04:12:29.571Z,55
2017-07-27T04:13:40.385Z,60
2017-07-27T04:14:50.909Z,60
2017-07-27T04:16:01.371Z,65
2017-07-27T04:17:11.532Z,65
2017-07-27T04:18:22.202Z,70
2017-07-27T04:19:32.919Z,75
2017-07-27T04:20:43.373Z,80
2017-07-27T04:21:53.878Z,80
2017-07-27T04:23:05.306Z,80
2017-07-27T04:24:16.005Z,85
2017-07-27T04:25:26.816Z,85
2017-07-27T04:26:37.268Z,85
2017-07-27T04:27:47.127Z,90
2017-07-27T04:28:57.607Z,90
2017-07-27T04:30:08.102Z,95
2017-07-27T04:31:19.005Z,95
2017-07-27T04:32:29.448Z,100
2017-07-27T04:33:40.502Z,105
2017-07-27T04:34:50.535Z,105
2017-07-27T04:36:00.994Z,105
2017-07-27T04:37:11.714Z,110
2017-07-27T04:38:22.207Z,110
2017-07-27T04:39:32.675Z,115
2017-07-27T04:40:43.261Z,115
2017-07-27T04:41:53.734Z,120
2017-07-27T04:43:04.646Z,120
2017-07-27T04:44:15.325Z,125
2017-07-27T04:45:25.816Z,125
2017-07-27T04:46:36.353Z,130
2017-07-27T04:47:46.986Z,135
2017-07-27T04:48:57.711Z,140
2017-07-27T04:50:08.151Z,145
2017-07-27T04:51:18.600Z,150
2017-07-27T04:52:28.785Z,155
2017-07-27T04:53:39.275Z,160
2017-07-27T04:54:49.978Z,165
2017-07-27T04:56:00.486Z,170
2017-07-27T04:57:10.944Z,170
2017-07-27T04:58:21.614Z,175
2017-07-27T04:59:31.786Z,185
2017-07-27T05:00:42.482Z,190
2017-07-27T05:01:53.022Z,195
2017-07-27T05:03:03.479Z,200
2017-07-27T05:04:13.998Z,205
2017-07-27T05:05:24.632Z,205
2017-07-27T05:06:35.388Z,210
2017-07-27T05:07:45.833Z,210
2017-07-27T05:08:56.290Z,210
2017-07-27T05:10:06.769Z,215
2017-07-27T05:11:17.232Z,230
2017-07-27T05:12:28.039Z,250
2017-07-27T05:13:38.551Z,260
2017-07-27T05:14:49.009Z,270
2017-07-27T05:15:59.516Z,290
2017-07-27T05:17:09.979Z,310
2017-07-27T05:18:20.695Z,320
2017-07-27T05:19:31.186Z,310
2017-07-27T05:20:41.644Z,305
2017-07-27T05:21:52.126Z,285
2017-07-27T05:23:02.816Z,270
2017-07-27T05:24:13.622Z,260
2017-07-27T05:25:24.068Z,255
2017-07-27T05:26:34.675Z,250
2017-07-27T05:27:45.367Z,240
2017-07-27T05:28:56.051Z,245
2017-07-27T05:30:06.775Z,235
2017-07-27T05:31:17.281Z,215
2017-07-27T05:32:27.731Z,215
2017-07-27T05:33:38.426Z,210
2017-07-27T05:34:48.967Z,205
2017-07-27T05:35:59.885Z,205
2017-07-27T05:37:09.665Z,205
2017-07-27T05:38:20.132Z,205
2017-07-27T05:39:30.594Z,205
2017-07-27T05:40:41.063Z,200
2017-07-27T05:41:51.841Z,195
2017-07-27T05:43:02.296Z,185
2017-07-27T05:44:12.938Z,185
2017-07-27T05:45:23.668Z,180
2017-07-27T05:46:34.130Z,180
2017-07-27T05:47:44.853Z,180
2017-07-27T05:48:55.303Z,185
2017-07-27T05:50:05.839Z,190
2017-07-27T05:51:16.302Z,205
2017-07-27T05:52:26.430Z,225
2017-07-27T05:53:37.133Z,240
2017-07-27T05:54:47.618Z,250
2017-07-27T05:55:58.093Z,265
2017-07-27T05:57:08.216Z,275
2017-07-27T05:58:18.964Z,300
2017-07-27T05:59:29.895Z,295
2017-07-27T06:00:40.078Z,320
2017-07-27T06:01:50.510Z,340
2017-07-27T06:03:01.012Z,355
2017-07-27T06:04:11.527Z,370
2017-07-27T06:05:22.246Z,375
2017-07-27T06:06:32.799Z,370
2017-07-27T06:07:43.243Z,365
2017-07-27T06:08:53.778Z,355
2017-07-27T06:10:04.235Z,345
2017-07-27T06:11:15.151Z,345
2017-07-27T06:12:25.617Z,340
2017-07-27T06:13:36.103Z,345
2017-07-27T06:14:46.822Z,345
2017-07-27T06:15:57.276Z,345
2017-07-27T06:17:07.975Z,340
2017-07-27T06:18:18.601Z,335
2017-07-27T06:19:29.103Z,330
2017-07-27T06:20:39.790Z,325
2017-07-27T06:21:50.285Z,325
2017-07-27T06:23:01.003Z,325
2017-07-27T06:24:11.520Z,330
2017-07-27T06:25:21.780Z,335
2017-07-27T06:26:32.277Z,340
2017-07-27T06:27:42.799Z,340
2017-07-27T06:28:53.514Z,345
2017-07-27T06:30:04.004Z,345
2017-07-27T06:31:14.502Z,355
2017-07-27T06:32:24.694Z,340
2017-07-27T06:33:35.384Z,340
2017-07-27T06:34:46.084Z,345
2017-07-27T06:35:56.540Z,350
2017-07-27T06:37:07.219Z,345
2017-07-27T06:38:17.369Z,330
2017-07-27T06:39:27.839Z,325
2017-07-27T06:40:38.798Z,325
2017-07-27T06:41:49.497Z,340
2017-07-27T06:43:00.046Z,360
2017-07-27T06:44:10.629Z,375
2017-07-27T06:45:21.128Z,390
2017-07-27T06:46:31.872Z,385
2017-07-27T06:47:42.448Z,365
2017-07-27T06:48:53.210Z,340
2017-07-27T06:50:03.725Z,320
2017-07-27T06:51:14.199Z,315
2017-07-27T06:52:24.917Z,305
2017-07-27T06:53:35.649Z,290
2017-07-27T06:54:46.107Z,285
2017-07-27T06:55:56.619Z,295
2017-07-27T06:57:07.098Z,285
2017-07-27T06:58:17.813Z,270
2017-07-27T06:59:28.368Z,255
2017-07-27T07:00:38.837Z,240
2017-07-27T07:01:49.712Z,225
2017-07-27T07:03:00.235Z,215
2017-07-27T07:04:10.705Z,205
2017-07-27T07:05:21.193Z,200
2017-07-27T07:06:31.674Z,190
2017-07-27T07:07:42.115Z,180
2017-07-27T07:08:52.594Z,175
2017-07-27T07:10:03.334Z,185
2017-07-27T07:11:14.034Z,210
2017-07-27T07:12:24.506Z,235
2017-07-27T07:13:34.987Z,255
2017-07-27T07:14:45.490Z,265
2017-07-27T07:15:56.477Z,300
2017-07-27T07:17:06.968Z,310
2017-07-27T07:18:17.441Z,305
2017-07-27T07:19:28.113Z,305
2017-07-27T07:20:38.620Z,320
2017-07-27T07:21:49.438Z,315
2017-07-27T07:22:59.944Z,305
2017-07-27T07:24:10.439Z,295
2017-07-27T07:25:20.925Z,265
2017-07-27T07:26:31.377Z,240
2017-07-27T07:27:42.341Z,220
2017-07-27T07:28:52.840Z,225
2017-07-27T07:30:02.881Z,240
2017-07-27T07:31:13.369Z,255
2017-07-27T07:32:23.840Z,260
2017-07-27T07:33:34.626Z,265
2017-07-27T07:34:45.077Z,250
2017-07-27T07:35:55.513Z,240
2017-07-27T07:37:06.205Z,235
2017-07-27T07:38:16.728Z,240
2017-07-27T07:39:27.459Z,245
2017-07-27T07:40:37.930Z,240
2017-07-27T07:41:48.426Z,230
2017-07-27T07:42:59.138Z,210
2017-07-27T07:44:09.281Z,210
2017-07-27T07:45:19.998Z,195
2017-07-27T07:46:30.546Z,175
2017-07-27T07:47:41.072Z,175
2017-07-27T07:48:51.542Z,180
2017-07-27T07:50:02.157Z,190
2017-07-27T07:51:13.044Z,200
2017-07-27T07:52:23.531Z,215
2017-07-27T07:53:34.013Z,215
2017-07-27T07:54:44.624Z,200
2017-07-27T07:55:55.116Z,195
2017-07-27T07:57:05.891Z,195
2017-07-27T07:58:16.383Z,175
2017-07-27T07:59:26.864Z,160
2017-07-27T08:00:36.929Z,150
2017-07-27T08:01:47.390Z,150
2017-07-27T08:02:58.094Z,155
2017-07-27T08:04:08.616Z,180
2017-07-27T08:05:19.101Z,195
2017-07-27T08:06:29.594Z,215
2017-07-27T08:07:40.077Z,255
2017-07-27T08:08:50.840Z,300
2017-07-27T08:10:01.350Z,350
2017-07-27T08:11:12.082Z,405
2017-07-27T08:12:22.621Z,455
2017-07-27T08:13:33.096Z,495
2017-07-27T08:14:44.077Z,515
2017-07-27T08:15:54.617Z,505
2017-07-27T08:17:05.115Z,485
2017-07-27T08:18:15.591Z,485
2017-07-27T08:19:26.076Z,475
2017-07-27T08:20:36.820Z,440
2017-07-27T08:21:47.390Z,415
2017-07-27T08:22:57.834Z,370
2017-07-27T08:24:08.318Z,315
2017-07-27T08:25:18.785Z,290
2017-07-27T08:26:29.520Z,280
2017-07-27T08:27:40.105Z,275
2017-07-27T08:28:50.593Z,280
2017-07-27T08:30:01.129Z,300
2017-07-27T08:31:11.600Z,335
2017-07-27T08:32:23.341Z,390
2017-07-27T08:33:33.531Z,425
2017-07-27T08:34:44.053Z,465
2017-07-27T08:35:54.553Z,525
2017-07-27T08:37:05.212Z,610
2017-07-27T08:38:16.657Z,700
2017-07-27T08:39:27.141Z,755
2017-07-27T08:40:37.757Z,870
2017-07-27T08:41:47.926Z,630
2017-07-27T08:42:58.680Z,605
2017-07-27T08:44:09.440Z,640
2017-07-27T08:45:19.914Z,685
2017-07-27T08:46:30.381Z,675
2017-07-27T08:47:40.998Z,610
2017-07-27T08:48:51.468Z,510
2017-07-27T08:50:02.410Z,425
2017-07-27T08:51:12.928Z,395
2017-07-27T08:52:23.438Z,390
2017-07-27T08:53:33.933Z,385
2017-07-27T08:54:44.414Z,360
2017-07-27T08:55:55.137Z,325
2017-07-27T08:57:05.762Z,280
2017-07-27T08:58:16.269Z,245
2017-07-27T08:59:26.481Z,260
2017-07-27T09:00:37.051Z,300
2017-07-27T09:01:47.780Z,325
2017-07-27T09:02:58.323Z,360
2017-07-27T09:04:09.018Z,375
2017-07-27T09:05:19.480Z,355
2017-07-27T09:06:29.988Z,330
2017-07-27T09:07:40.849Z,310
2017-07-27T09:08:51.004Z,310
2017-07-27T09:10:01.574Z,345
2017-07-27T09:11:12.082Z,325
2017-07-27T09:12:22.613Z,305
2017-07-27T09:13:33.056Z,295
2017-07-27T09:14:43.515Z,285
2017-07-27T09:15:53.984Z,295
2017-07-27T09:17:03.854Z,285
2017-07-27T09:18:14.004Z,255
2017-07-27T09:19:24.743Z,245
2017-07-27T09:20:34.944Z,245
2017-07-27T09:21:45.424Z,260
2017-07-27T09:22:55.947Z,275
2017-07-27T09:24:06.387Z,275
2017-07-27T09:25:17.115Z,285
2017-07-27T09:26:28.599Z,315
2017-07-27T09:27:39.070Z,360
2017-07-27T09:28:49.556Z,410
2017-07-27T09:30:00.048Z,470
2017-07-27T09:31:10.787Z,535
2017-07-27T09:32:21.022Z,600
2017-07-27T09:33:31.184Z,655
2017-07-27T09:34:41.760Z,685
2017-07-27T09:35:52.250Z,620
2017-07-27T09:37:03.005Z,560
2017-07-27T09:38:13.469Z,510
2017-07-27T09:39:24.008Z,490
2017-07-27T09:40:34.490Z,495
2017-07-27T09:41:44.997Z,515
2017-07-27T09:42:55.710Z,530
2017-07-27T09:44:05.883Z,545
2017-07-27T09:45:16.425Z,565
2017-07-27T09:46:26.940Z,590
2017-07-27T09:47:37.433Z,555
2017-07-27T09:48:48.386Z,450
2017-07-27T09:49:58.545Z,350
2017-07-27T09:51:08.725Z,305
2017-07-27T09:52:18.433Z,280
2017-07-27T09:53:28.923Z,250
2017-07-27T09:54:39.757Z,230
2017-07-27T09:55:50.245Z,230
2017-07-27T09:57:00.732Z,215
2017-07-27T09:58:11.236Z,185
2017-07-27T09:59:21.700Z,180
2017-07-27T10:00:32.538Z,215
2017-07-27T10:01:43.020Z,295
2017-07-27T10:02:53.508Z,315
2017-07-27T10:04:04.055Z,320
2017-07-27T10:05:14.565Z,345
2017-07-27T10:06:24.964Z,360
2017-07-27T10:07:35.663Z,375
2017-07-27T10:08:46.116Z,375
2017-07-27T10:09:56.642Z,380
2017-07-27T10:11:07.172Z,380
2017-07-27T10:12:17.855Z,345
2017-07-27T10:13:28.329Z,310
2017-07-27T10:14:38.825Z,340
2017-07-27T10:15:49.303Z,390
2017-07-27T10:17:00.056Z,530
2017-07-27T10:18:10.749Z,725
2017-07-27T10:19:21.253Z,1025
2017-07-27T10:20:31.748Z,760
2017-07-27T10:21:42.279Z,580
2017-07-27T10:22:52.748Z,550
2017-07-27T10:24:03.499Z,710
2017-07-27T10:25:13.718Z,1275
2017-07-27T10:26:24.370Z,1725
2017-07-27T10:27:34.902Z,1590
2017-07-27T10:28:45.403Z,1375
2017-07-27T10:29:55.837Z,1605
2017-07-27T10:31:06.586Z,2050
2017-07-27T10:32:17.095Z,1275
2017-07-27T10:33:27.594Z,975
2017-07-27T10:34:38.301Z,910
2017-07-27T10:35:49.035Z,910
2017-07-27T10:36:59.180Z,990
2017-07-27T10:38:09.669Z,1155
2017-07-27T10:39:19.932Z,1015
2017-07-27T10:40:30.384Z,1155
2017-07-27T10:41:41.121Z,1320
2017-07-27T10:42:51.299Z,1290
2017-07-27T10:44:01.939Z,1430
2017-07-27T10:45:12.173Z,1540
2017-07-27T10:46:22.723Z,1845
2017-07-27T10:47:33.691Z,2075
2017-07-27T10:48:44.233Z,2070
2017-07-27T10:49:54.910Z,1540
2017-07-27T10:51:05.658Z,1235
2017-07-27T10:52:15.839Z,695
2017-07-27T10:53:26.581Z,595
2017-07-27T10:54:37.129Z,380
2017-07-27T10:55:47.418Z,370
2017-07-27T10:56:58.146Z,440
2017-07-27T10:58:08.633Z,505
2017-07-27T10:59:19.529Z,575
2017-07-27T11:00:29.901Z,735
2017-07-27T11:01:40.771Z,805
2017-07-27T11:02:50.926Z,730
2017-07-27T11:04:01.389Z,770
2017-07-27T11:05:12.130Z,895
2017-07-27T11:06:22.667Z,795
2017-07-27T11:07:33.115Z,585
2017-07-27T11:08:43.698Z,460
2017-07-27T11:09:54.222Z,355
2017-07-27T11:11:04.943Z,285
2017-07-27T11:12:15.626Z,285
2017-07-27T11:13:26.150Z,300
2017-07-27T11:14:36.666Z,335
2017-07-27T11:15:47.227Z,335
2017-07-27T11:16:57.957Z,280
2017-07-27T11:18:08.485Z,245
2017-07-27T11:19:18.987Z,315
2017-07-27T11:20:29.463Z,475
2017-07-27T11:21:39.956Z,460
2017-07-27T11:22:50.948Z,380
2017-07-27T11:24:01.516Z,330
2017-07-27T11:25:11.985Z,355
2017-07-27T11:26:22.530Z,455
2017-07-27T11:27:32.690Z,465
2017-07-27T11:28:43.531Z,510
2017-07-27T11:29:54.093Z,560
2017-07-27T11:31:04.592Z,580
2017-07-27T11:32:15.147Z,690
2017-07-27T11:33:25.723Z,750
2017-07-27T11:34:36.475Z,800
2017-07-27T11:35:46.960Z,890
2017-07-27T11:36:57.508Z,995
2017-07-27T11:38:08.014Z,915
2017-07-27T11:39:18.483Z,855
2017-07-27T11:40:30.209Z,805
2017-07-27T11:41:40.700Z,765
2017-07-27T11:42:51.448Z,770
2017-07-27T11:44:01.927Z,785
2017-07-27T11:45:12.413Z,780
2017-07-27T11:46:23.197Z,810
2017-07-27T11:47:33.757Z,840
2017-07-27T11:48:44.270Z,870
2017-07-27T11:49:54.757Z,930
2017-07-27T11:51:05.230Z,1005
2017-07-27T11:52:16.939Z,1100
2017-07-27T11:53:27.730Z,1170
2017-07-27T11:54:38.248Z,1195
2017-07-27T11:55:48.752Z,1135
2017-07-27T11:56:59.553Z,1115
2017-07-27T11:58:10.312Z,1240
2017-07-27T11:59:20.800Z,1305
2017-07-27T12:00:31.296Z,1925
2017-07-27T12:01:41.815Z,1775
2017-07-27T12:02:52.329Z,1410
2017-07-27T12:04:03.045Z,1685
2017-07-27T12:05:13.455Z,1935
2017-07-27T12:06:24.162Z,1030
2017-07-27T12:07:34.647Z,825
2017-07-27T12:08:45.164Z,1600
2017-07-27T12:09:55.658Z,950
2017-07-27T12:11:06.138Z,1455
2017-07-27T12:12:16.665Z,1150
2017-07-27T12:13:27.142Z,1145
2017-07-27T12:14:37.311Z,1620
2017-07-27T12:15:48.070Z,950
2017-07-27T12:16:58.656Z,930
2017-07-27T12:18:09.189Z,2060
2017-07-27T12:19:19.742Z,2585
2017-07-27T12:20:30.321Z,2990
2017-07-27T12:21:41.111Z,1555
2017-07-27T12:22:51.600Z,1470
2017-07-27T12:24:02.135Z,3655
2017-07-27T12:25:12.862Z,3225
2017-07-27T12:26:23.341Z,2535
2017-07-27T12:27:34.083Z,1825
2017-07-27T12:28:44.694Z,1680
2017-07-27T12:29:55.211Z,1480
2017-07-27T12:31:05.825Z,1460
2017-07-27T12:32:16.377Z,1425
2017-07-27T12:33:27.649Z,1230
2017-07-27T12:34:38.204Z,965
2017-07-27T12:35:48.717Z,910
2017-07-27T12:36:59.220Z,805
2017-07-27T12:38:09.919Z,735
2017-07-27T12:39:21.247Z,745
2017-07-27T12:40:31.743Z,885
2017-07-27T12:41:42.449Z,890
2017-07-27T12:42:53.134Z,995
2017-07-27T12:44:03.645Z,990
2017-07-27T12:45:14.459Z,1025
2017-07-27T12:46:24.945Z,1080
2017-07-27T12:47:35.476Z,1290
2017-07-27T12:48:45.944Z,1520
2017-07-27T12:49:56.487Z,2335
2017-07-27T12:51:07.309Z,1995
2017-07-27T12:52:17.816Z,2655
2017-07-27T12:53:28.284Z,2680
2017-07-27T12:54:38.759Z,3735
2017-07-27T12:55:49.269Z,3845
2017-07-27T12:56:59.996Z,4340
2017-07-27T12:58:10.475Z,3595
2017-07-27T12:59:21.182Z,3520
2017-07-27T13:00:31.503Z,3705
2017-07-27T13:01:41.980Z,3880
2017-07-27T13:02:52.743Z,3965
2017-07-27T13:04:03.242Z,4220
2017-07-27T13:05:13.729Z,1485
2017-07-27T13:06:24.201Z,2755
2017-07-27T13:07:34.759Z,3325
2017-07-27T13:08:45.595Z,3155
2017-07-27T13:09:56.152Z,1335
2017-07-27T13:11:06.629Z,2040
2017-07-27T13:12:16.809Z,1810
2017-07-27T13:13:27.306Z,1325
2017-07-27T13:14:38.132Z,1165
2017-07-27T13:15:48.690Z,905
2017-07-27T13:16:59.239Z,685
2017-07-27T13:18:09.741Z,650
2017-07-27T13:19:20.250Z,690
2017-07-27T13:20:31.003Z,1055
2017-07-27T13:21:41.490Z,995
2017-07-27T13:22:52.152Z,1755
2017-07-27T13:24:02.448Z,1000
2017-07-27T13:25:12.947Z,835
2017-07-27T13:26:23.711Z,795
2017-07-27T13:27:34.439Z,805
2017-07-27T13:28:44.956Z,890
2017-07-27T13:29:55.049Z,2690
2017-07-27T13:31:05.574Z,1400
2017-07-27T13:32:16.529Z,1120
2017-07-27T13:33:27.258Z,905
2017-07-27T13:34:37.744Z,750
2017-07-27T13:35:48.330Z,730
2017-07-27T13:36:58.823Z,705
2017-07-27T13:38:09.564Z,1360
2017-07-27T13:39:20.306Z,625
2017-07-27T13:40:30.790Z,595
2017-07-27T13:41:40.964Z,1075
2017-07-27T13:42:51.500Z,735
2017-07-27T13:44:01.982Z,630
2017-07-27T13:45:12.600Z,610
2017-07-27T13:46:23.221Z,725
2017-07-27T13:47:33.732Z,685
2017-07-27T13:48:44.208Z,775
2017-07-27T13:49:54.985Z,1035
2017-07-27T13:51:05.180Z,1390
2017-07-27T13:52:15.692Z,835
2017-07-27T13:53:25.871Z,730
2017-07-27T13:54:36.438Z,685
2017-07-27T13:55:47.279Z,730
2017-07-27T13:56:57.822Z,725
2017-07-27T13:58:08.546Z,1810
2017-07-27T13:59:19.065Z,1675
2017-07-27T14:00:29.593Z,1625
2017-07-27T14:01:40.384Z,1780
2017-07-27T14:02:50.908Z,2805
2017-07-27T14:04:01.410Z,3055
2017-07-27T14:05:11.970Z,3345
2017-07-27T14:06:22.705Z,2975
2017-07-27T14:07:33.479Z,985
2017-07-27T14:08:43.967Z,2070
2017-07-27T14:09:54.539Z,1485
2017-07-27T14:11:05.032Z,760
2017-07-27T14:12:15.486Z,800
2017-07-27T14:13:26.285Z,960
2017-07-27T14:14:36.846Z,1910
2017-07-27T14:15:47.356Z,2635
2017-07-27T14:16:57.908Z,840
2017-07-27T14:18:08.615Z,1885
2017-07-27T14:19:19.435Z,1500
2017-07-27T14:20:30.029Z,650
2017-07-27T14:21:40.518Z,580
2017-07-27T14:22:51.015Z,550
2017-07-27T14:24:01.954Z,485
2017-07-27T14:25:12.808Z,520
2017-07-27T14:26:23.306Z,545
2017-07-27T14:27:33.840Z,545
2017-07-27T14:28:44.340Z,590
2017-07-27T14:29:54.846Z,635
2017-07-27T14:31:05.914Z,610
2017-07-27T14:32:16.408Z,545
2017-07-27T14:33:26.958Z,1140
2017-07-27T14:34:37.441Z,615
2017-07-27T14:35:47.900Z,715
2017-07-27T14:36:58.703Z,1820
2017-07-27T14:38:09.242Z,1985
2017-07-27T14:39:19.757Z,1945
2017-07-27T14:40:30.490Z,975
2017-07-27T14:41:40.984Z,620
2017-07-27T14:42:51.781Z,540
2017-07-27T14:44:02.295Z,510
2017-07-27T14:45:12.402Z,510
2017-07-27T14:46:22.891Z,580
2017-07-27T14:47:33.603Z,505
2017-07-27T14:48:44.385Z,485
2017-07-27T14:49:54.921Z,480
2017-07-27T14:51:05.500Z,490
2017-07-27T14:52:16.070Z,490
2017-07-27T14:53:26.230Z,480
2017-07-27T14:54:37.054Z,475
2017-07-27T14:55:47.609Z,455
2017-07-27T14:56:58.120Z,415
2017-07-27T14:58:08.769Z,380
2017-07-27T14:59:19.269Z,355
2017-07-27T15:00:30.072Z,325
2017-07-27T15:01:40.316Z,325
2017-07-27T15:02:50.818Z,350
2017-07-27T15:04:01.342Z,350
2017-07-27T15:05:12.046Z,320
2017-07-27T15:06:22.782Z,295
2017-07-27T15:07:33.288Z,275
2017-07-27T15:08:43.807Z,295
2017-07-27T15:09:54.337Z,325
2017-07-27T15:11:04.844Z,360
2017-07-27T15:12:15.623Z,385
2017-07-27T15:13:26.194Z,370
2017-07-27T15:14:36.464Z,355
2017-07-27T15:15:46.979Z,340
2017-07-27T15:16:57.476Z,325
2017-07-27T15:18:08.262Z,355
2017-07-27T15:19:18.735Z,395
2017-07-27T15:20:29.498Z,420
2017-07-27T15:21:40.037Z,430
2017-07-27T15:22:50.719Z,430
2017-07-27T15:24:01.475Z,425
2017-07-27T15:25:12.038Z,415
2017-07-27T15:26:22.233Z,400
2017-07-27T15:27:32.770Z,390
2017-07-27T15:28:44.069Z,390
2017-07-27T15:29:54.964Z,385
2017-07-27T15:31:05.495Z,380
2017-07-27T15:32:16.210Z,380
2017-07-27T15:33:26.699Z,375
2017-07-27T15:34:37.230Z,375
2017-07-27T15:35:47.691Z,370
2017-07-27T15:36:58.491Z,355
2017-07-27T15:38:08.661Z,355
2017-07-27T15:39:19.163Z,340
2017-07-27T15:40:29.899Z,330
2017-07-27T15:41:40.833Z,320
2017-07-27T15:42:51.866Z,330
2017-07-27T15:44:02.266Z,335
2017-07-27T15:45:12.831Z,340
2017-07-27T15:46:23.550Z,345
2017-07-27T15:47:34.295Z,355
2017-07-27T15:48:44.544Z,355
2017-07-27T15:49:55.069Z,350
2017-07-27T15:51:05.558Z,340
2017-07-27T15:52:16.163Z,325
2017-07-27T15:53:26.972Z,315
2017-07-27T15:54:37.518Z,315
2017-07-27T15:55:48.158Z,310
2017-07-27T15:56:58.647Z,300
2017-07-27T15:58:09.229Z,290
2017-07-27T15:59:20.179Z,280
2017-07-27T16:00:30.742Z,275
2017-07-27T16:01:41.316Z,260
2017-07-27T16:02:51.836Z,245
2017-07-27T16:04:02.364Z,215
2017-07-27T16:05:13.116Z,215
2017-07-27T16:06:23.694Z,215
2017-07-27T16:07:34.480Z,195
2017-07-27T16:08:45.218Z,175
2017-07-27T16:09:55.424Z,170
2017-07-27T16:11:06.194Z,165
2017-07-27T16:12:16.707Z,145
2017-07-27T16:13:27.189Z,155
2017-07-27T16:14:37.770Z,145
2017-07-27T16:15:48.262Z,120
2017-07-27T16:16:59.007Z,110
2017-07-27T16:18:09.735Z,120
2017-07-27T16:19:20.297Z,125
2017-07-27T16:20:30.796Z,115
2017-07-27T16:21:41.295Z,105
2017-07-27T16:22:52.068Z,95
2017-07-27T16:24:02.580Z,90